• Join FlightAware (Why Join?)
  • Login
  • US Flag 
12:35PM EDT


 

Airport Tracker/Info


-or-


 

Live Flight TrackerFlight Track Log ✈ FDX1254 ✈ 07-Jun-2013 ✈ KFWA - KMEM

Flight Track Log - Related Links

Times and Time Zones

All times are in EDT time to prevent confusion due to time zone crossing. See the FDX1254 flight status page for this flight to view local times or setup timezone preferences in your user account.

Time Position Orientation Groundspeed Altitude Reporting Facility
EDT Latitude Longitude Course Direction KTS MPH feet Rate Location/Type
11:32PM 40.8230 -85.2750 218° Southwest 318 366 11,800  Level FlightAware
11:33PM 40.7630 -85.3450 221° Southwest 355 409 12,500 2,700 Climbing FlightAware
11:34PM 40.7130 -85.4740 243° Southwest 386 444 16,900 3,840 Climbing FlightAware
11:34PM 40.6740 -85.5580 239° Southwest 400 460 18,900 2,880 Climbing FlightAware
11:35PM 40.6370 -85.6380 239° Southwest 408 470 20,800 2,640 Climbing FlightAware
11:36PM 40.5750 -85.7130 223° Southwest 424 488 22,700 2,580 Climbing FlightAware
11:36PM 40.5020 -85.7760 213° Southwest 433 498 24,500 2,460 Climbing FlightAware
11:37PM 40.4250 -85.8420 213° Southwest 440 506 26,300 2,220 Climbing FlightAware
11:38PM 40.3560 -85.9010 213° Southwest 446 513 27,700 1,980 Climbing FlightAware
11:39PM 40.2870 -85.9620 214° Southwest 455 524 29,000 1,680 Climbing FlightAware
11:39PM 40.2100 -86.0280 213° Southwest 440 506 30,100 660 Climbing FlightAware
11:40PM 40.1350 -86.0930 214° Southwest 431 496 30,000 -120 Descending FlightAware
11:41PM 40.0680 -86.1500 213° Southwest 432 497 30,000 60 Level FlightAware
11:41PM 40.0020 -86.2070 213° Southwest 439 505 30,100 1,080 Climbing FlightAware
11:42PM 39.9270 -86.2720 214° Southwest 426 490 31,500 2,520 Climbing FlightAware
11:43PM 39.8660 -86.3240 213° Southwest 393 452 33,700 1,860 Climbing FlightAware
11:43PM 39.8000 -86.3790 213° Southwest 403 464 34,100 240 Climbing FlightAware
11:44PM 39.7290 -86.4330 210° Southwest 407 468 34,100  Level FlightAware
11:45PM 39.6620 -86.4820 209° Southwest 409 471 34,100  Level FlightAware
11:46PM 39.5920 -86.5360 211° Southwest 407 468 34,100  Level FlightAware
11:46PM 39.5220 -86.5890 210° Southwest 406 467 34,100  Level FlightAware
11:47PM 39.4510 -86.6430 210° Southwest 405 466 34,100  Level FlightAware
11:48PM 39.3860 -86.6920 210° Southwest 404 465 34,100  Level FlightAware
11:48PM 39.3210 -86.7410 210° Southwest 404 465 34,100  Level FlightAware
11:49PM 39.2530 -86.7910 210° Southwest 405 466 34,100  Level FlightAware
11:50PM 39.1820 -86.8440 210° Southwest 405 466 34,100  Level FlightAware
11:50PM 39.1170 -86.8920 210° Southwest 407 468 34,100  Level FlightAware
11:51PM 39.0460 -86.9460 211° Southwest 409 471 34,100  Level FlightAware
11:52PM 38.9760 -86.9980 210° Southwest 410 472 34,100  Level FlightAware
11:53PM 38.9130 -87.0440 210° Southwest 413 475 34,100  Level FlightAware
11:53PM 38.8390 -87.0990 210° Southwest 416 479 34,100  Level FlightAware
11:54PM 38.7670 -87.1520 210° Southwest 420 483 34,100  Level FlightAware
11:55PM 38.6940 -87.2060 210° Southwest 424 488 34,100  Level FlightAware
11:55PM 38.6240 -87.2580 210° Southwest 426 490 34,100  Level FlightAware
11:56PM 38.5550 -87.3080 210° Southwest 430 495 34,100  Level FlightAware
11:57PM 38.4760 -87.3650 209° Southwest 431 496 34,100  Level FlightAware
11:57PM 38.4040 -87.4180 210° Southwest 433 498 34,100  Level FlightAware
11:58PM 38.3340 -87.4690 210° Southwest 435 501 34,100  Level FlightAware
11:59PM 38.2650 -87.5190 210° Southwest 436 502 34,100  Level FlightAware
12:00AM 38.1890 -87.5750 210° Southwest 436 502 34,100  Level FlightAware
12:00AM 38.1120 -87.6290 209° Southwest 436 502 34,100 -120 Level FlightAware
12:01AM 38.0360 -87.6850 210° Southwest 435 501 34,000 -840 Descending FlightAware
12:02AM 37.9670 -87.7350 210° Southwest 431 496 33,000 -1,380 Descending FlightAware
12:02AM 37.9010 -87.8020 219° Southwest 439 505 32,100 -660 Descending FlightAware
12:03AM 37.8440 -87.8830 228° Southwest 446 513 32,100  Level FlightAware
12:04AM 37.7890 -87.9630 229° Southwest 447 514 32,100  Level FlightAware
12:04AM 37.7310 -88.0480 229° Southwest 446 513 32,100  Level FlightAware
12:05AM 37.6720 -88.1320 228° Southwest 446 513 32,100  Level FlightAware
12:06AM 37.6150 -88.2140 229° Southwest 445 512 32,100  Level FlightAware
12:07AM 37.5550 -88.3000 229° Southwest 444 511 32,100  Level FlightAware
12:07AM 37.5000 -88.3800 229° Southwest 444 511 32,100  Level FlightAware
12:08AM 37.4430 -88.4590 228° Southwest 443 510 32,100  Level FlightAware
12:09AM 37.3880 -88.5380 229° Southwest 442 509 32,100  Level FlightAware
12:10AM 37.3220 -88.6310 228° Southwest 442 509 32,100  Level FlightAware
12:10AM 37.2660 -88.7090 228° Southwest 442 509 32,100  Level FlightAware
12:11AM 37.2240 -88.7670 228° Southwest 442 509 32,100  Level FlightAware
12:12AM 37.1670 -88.8470 228° Southwest 442 509 32,100  Level FlightAware
12:12AM 37.1250 -88.9050 228° Southwest 442 509 32,100  Level FlightAware
12:13AM 37.0690 -88.9830 228° Southwest 442 509 32,100  Level FlightAware
12:14AM 37.0270 -89.0410 228° Southwest 442 509 32,100  Level FlightAware
12:15AM 36.9710 -89.1190 228° Southwest 442 509 32,100  Level FlightAware
12:15AM 36.9280 -89.1780 228° Southwest 442 509 32,100  Level FlightAware
12:16AM 36.8830 -89.2410 228° Southwest 442 509 32,100  Level FlightAware
12:17AM 36.8270 -89.3190 228° Southwest 442 509 32,100  Level FlightAware
12:17AM 36.7850 -89.3770 228° Southwest 442 509 32,100  Level FlightAware
12:18AM 36.7300 -89.4540 228° Southwest 442 509 32,100  Level FlightAware
12:19AM 36.6880 -89.5120 228° Southwest 442 509 32,100 -5,520 Level FlightAware
12:19AM 36.4442 -89.6553 228° Southwest 428 493 24,200 -5,580 Descending Memphis Center
12:20AM 36.3278 -89.6794 189° South 428 493 21,900 -2,340 Descending Memphis Center
12:21AM 36.2153 -89.7061 191° South 428 493 19,600 -2,280 Descending Memphis Center
12:22AM 36.1092 -89.7328 191° South 414 476 17,400 -2,280 Descending Memphis Center
12:23AM 36.0028 -89.7567 190° South 402 463 15,100 -2,340 Descending Memphis Center
12:24AM 35.9008 -89.7806 191° South 386 444 12,800 -2,220 Descending Memphis Center
12:25AM 35.8028 -89.8017 190° South 375 432 10,700 -1,380 Descending Memphis Center
12:26AM 35.7153 -89.8175 188° South 348 400 10,100 -960 Descending Memphis Center
12:27AM 35.6425 -89.8283 187° South 298 343 8,800 -1,440 Descending Memphis Center
12:28AM 35.5672 -89.7931 159° South 269 310 7,300 -1,560 Descending Memphis Center
12:29AM 35.4939 -89.7603 160° South 280 322 5,700 -1,560 Descending Memphis Center
12:30AM 35.4208 -89.7278 160° South 286 329 4,200 -900 Descending Memphis Center
12:31AM 35.3478 -89.6953 160° South 286 329 4,000 -120 Descending Memphis Center
12:32AM 35.2767 -89.6806 170° South 264 304 4,000 -120 Level Memphis Center
12:33AM 35.2100 -89.6811 180° South 249 287 3,800 -540 Descending Memphis Center
12:34AM 35.1472 -89.6817 180° South 234 269 3,000 -360 Descending Memphis Center
12:35AM 35.0869 -89.6972 192° South 234 269 3,100  Climbing Memphis Center
12:36AM 35.0539 -89.7636 239° Southwest 215 247 3,000 -480 Descending Memphis Center
12:37AM 35.0542 -89.8369 270° West 209 241 2,200 -900 Descending Memphis Center
12:38AM 35.0567 -89.9006 273° West 200 230 1,300 -840 Descending Memphis Center
12:39AM 35.0589 -89.9486 273° West 165 190 600 -720 Descending Memphis Center
12:42AM 35.0333 -89.9667 264° West  Level FlightAware Approximate